Time;durP1;ratioP1;P1;durP2;ratioP2;P2;SDS_P1;SDS_P2;PMS_P1;PMS_P2;Temp;Humidity;BMP_temperature;BMP_pressure;BME280_temperature;BME280_humidity;BME280_pressure;Samples;Min_cycle;Max_cycle;Signal;HPM_P1;HPM_P2
2022/08/03 00:02:12;;;;;;;5.15;2.13;;;20.10;99.90;;;;;;5039822;28;20379;-70
2022/08/03 00:04:38;;;;;;;9.75;2.25;;;20.00;99.90;;;;;;5073663;28;20094;-70
2022/08/03 00:07:04;;;;;;;5.22;2.15;;;20.10;99.90;;;;;;5039530;28;20442;-69
2022/08/03 00:09:30;;;;;;;9.30;2.28;;;19.90;99.90;;;;;;5073821;28;20037;-70
2022/08/03 00:11:55;;;;;;;6.53;2.70;;;20.90;99.90;;;;;;5074211;28;20391;-70
2022/08/03 00:14:21;;;;;;;4.00;1.85;;;20.90;99.90;;;;;;5073581;28;20047;-70
2022/08/03 00:16:46;;;;;;;5.47;2.40;;;19.80;99.90;;;;;;5055788;28;20036;-70
2022/08/03 00:19:12;;;;;;;6.13;2.10;;;20.00;99.90;;;;;;5039030;28;20044;-70
2022/08/03 00:21:37;;;;;;;7.50;2.47;;;19.90;99.90;;;;;;5074001;28;20391;-70
2022/08/03 00:24:03;;;;;;;5.75;2.53;;;19.90;99.90;;;;;;5055758;28;20166;-70
2022/08/03 00:26:30;;;;;;;6.75;2.53;;;19.80;99.90;;;;;;5055835;28;20085;-70
2022/08/03 00:28:56;;;;;;;3.83;2.00;;;19.70;99.90;;;;;;5055476;28;20559;-70
2022/08/03 00:31:21;;;;;;;4.88;2.25;;;19.90;99.90;;;;;;5039141;28;20123;-70
2022/08/03 00:33:47;;;;;;;3.38;1.60;;;20.20;99.90;;;;;;5073283;28;20036;-69
2022/08/03 00:36:12;;;;;;;6.22;2.00;;;20.00;99.90;;;;;;5073543;28;20055;-70
2022/08/03 00:38:38;;;;;;;15.10;4.05;;;20.70;99.90;;;;;;5055599;28;20032;-71
2022/08/03 00:41:03;;;;;;;8.57;2.50;;;20.20;99.90;;;;;;5039253;28;20098;-70
2022/08/03 00:43:29;;;;;;;7.97;2.08;;;20.80;99.90;;;;;;5073349;28;20032;-70
2022/08/03 00:45:55;;;;;;;4.95;2.03;;;19.80;99.90;;;;;;5073079;28;20040;-70
2022/08/03 00:48:21;;;;;;;10.25;3.28;;;19.70;99.90;;;;;;5038539;28;20090;-70
2022/08/03 00:50:47;;;;;;;6.47;2.38;;;19.60;99.90;;;;;;5055076;28;20044;-70
2022/08/03 00:53:13;;;;;;;5.43;2.67;;;20.80;99.90;;;;;;5055406;28;20394;-70
2022/08/03 00:55:40;;;;;;;7.68;2.10;;;19.80;99.90;;;;;;5072917;28;20044;-69
2022/08/03 00:58:07;;;;;;;6.63;2.13;;;19.70;99.90;;;;;;5073167;28;20044;-70
2022/08/03 01:00:35;;;;;;;7.78;1.95;;;20.10;99.90;;;;;;5055402;28;20044;-70
2022/08/03 01:03:01;;;;;;;4.10;1.85;;;19.70;99.90;;;;;;5054753;28;20071;-70
2022/08/03 01:05:27;;;;;;;6.97;1.92;;;19.80;99.90;;;;;;5053941;28;20044;-70
2022/08/03 01:08:19;;;;;;;8.55;2.67;;;19.70;99.90;;;;;;5055140;28;20051;-70
2022/08/03 01:11:08;;;;;;;7.88;2.20;;;20.70;99.90;;;;;;5054799;28;20501;-70
2022/08/03 01:13:45;;;;;;;8.57;2.28;;;17.90;99.90;;;;;;5072997;28;20056;-70
2022/08/03 01:16:29;;;;;;;7.55;2.55;;;20.70;99.90;;;;;;5072887;28;20033;-70
2022/08/03 01:19:23;;;;;;;5.65;1.80;;;20.10;99.90;;;;;;5073030;28;20036;-70
2022/08/03 01:22:19;;;;;;;7.25;1.85;;;19.50;99.90;;;;;;5072917;28;20456;-70
2022/08/03 01:25:02;;;;;;;5.10;1.80;;;19.50;99.90;;;;;;5054600;28;20405;-70
2022/08/03 01:27:42;;;;;;;10.93;2.25;;;19.50;99.90;;;;;;5055226;28;20072;-69
2022/08/03 01:30:10;;;;;;;4.65;1.38;;;19.60;99.90;;;;;;5054577;28;20040;-70
2022/08/03 01:32:59;;;;;;;5.78;1.90;;;19.50;99.90;;;;;;5054764;28;20047;-70
2022/08/03 01:35:49;;;;;;;3.75;1.45;;;19.30;99.90;;;;;;5054533;28;20117;-70
2022/08/03 01:38:23;;;;;;;4.82;1.55;;;19.30;99.90;;;;;;5072308;28;20066;-70
2022/08/03 01:40:52;;;;;;;8.57;2.10;;;19.30;99.90;;;;;;5054314;28;20510;-70
2022/08/03 01:43:22;;;;;;;8.45;2.20;;;19.40;99.90;;;;;;5072414;28;20044;-70
2022/08/03 01:45:48;;;;;;;6.95;1.70;;;20.00;99.90;;;;;;5071666;28;20528;-70
2022/08/03 01:48:16;;;;;;;6.82;2.55;;;19.50;99.90;;;;;;5054152;28;20082;-70
2022/08/03 01:50:43;;;;;;;4.30;1.65;;;20.00;99.90;;;;;;5054297;28;20040;-70
2022/08/03 01:53:12;;;;;;;8.57;1.92;;;19.40;99.90;;;;;;5072298;28;20048;-69
2022/08/03 01:55:39;;;;;;;4.57;1.58;;;19.40;99.90;;;;;;5053978;28;20047;-69
2022/08/03 01:58:07;;;;;;;4.90;1.70;;;19.60;99.90;;;;;;5054267;28;20037;-70
2022/08/03 02:00:36;;;;;;;5.13;1.75;;;19.80;99.90;;;;;;5054080;28;20117;-70
2022/08/03 02:03:04;;;;;;;7.70;1.55;;;19.40;99.90;;;;;;5053730;28;20048;-70
2022/08/03 02:05:32;;;;;;;9.45;2.53;;;19.30;99.90;;;;;;5071701;28;20040;-70
2022/08/03 02:07:59;;;;;;;6.15;2.30;;;19.30;99.90;;;;;;5054084;28;20406;-69
2022/08/03 02:10:25;;;;;;;6.30;1.55;;;19.80;99.90;;;;;;5053557;28;20041;-70
2022/08/03 02:12:52;;;;;;;5.13;1.95;;;19.30;99.90;;;;;;5071745;28;20045;-71
2022/08/03 02:15:18;;;;;;;9.00;2.13;;;19.30;99.90;;;;;;5053728;28;20374;-69
2022/08/03 02:17:46;;;;;;;9.02;1.75;;;19.50;99.90;;;;;;5052612;28;20044;-70
2022/08/03 02:20:13;;;;;;;7.88;1.75;;;19.30;99.90;;;;;;5053645;28;20079;-70
2022/08/03 02:22:40;;;;;;;6.53;1.80;;;19.10;99.90;;;;;;5053607;28;20056;-70
2022/08/03 02:25:08;;;;;;;11.82;2.40;;;20.20;99.90;;;;;;5071406;28;20037;-70
2022/08/03 02:27:35;;;;;;;11.40;2.08;;;19.30;99.90;;;;;;5071514;28;20378;-70
2022/08/03 02:30:07;;;;;;;10.30;2.83;;;19.30;99.90;;;;;;5053303;28;20120;-70
2022/08/03 02:32:39;;;;;;;4.63;1.75;;;19.30;99.90;;;;;;5053477;28;20044;-70
2022/08/03 02:35:15;;;;;;;4.63;1.83;;;19.60;99.90;;;;;;5071432;28;20174;-70
2022/08/03 02:37:45;;;;;;;5.80;1.58;;;19.90;99.90;;;;;;5053477;28;20048;-70
2022/08/03 02:40:12;;;;;;;6.00;1.95;;;19.00;99.90;;;;;;5036954;28;20518;-70
2022/08/03 02:42:38;;;;;;;5.57;2.05;;;19.20;99.90;;;;;;5053378;28;20040;-70
2022/08/03 02:45:08;;;;;;;7.57;1.80;;;19.70;99.90;;;;;;5071354;28;20037;-70
2022/08/03 02:47:36;;;;;;;9.02;1.92;;;19.20;99.90;;;;;;5053293;28;20076;-70
2022/08/03 02:50:03;;;;;;;3.28;1.48;;;19.20;99.90;;;;;;5053293;28;20133;-70
2022/08/03 02:52:32;;;;;;;8.20;2.35;;;19.20;99.90;;;;;;5071337;28;20044;-70
2022/08/03 02:55:01;;;;;;;8.73;1.73;;;19.10;99.90;;;;;;5053153;28;20037;-70
2022/08/03 02:57:29;;;;;;;10.10;2.08;;;19.40;99.90;;;;;;5053411;28;20082;-69
2022/08/03 02:59:57;;;;;;;8.15;2.05;;;20.10;99.90;;;;;;5053083;28;20119;-70
2022/08/03 03:02:23;;;;;;;8.27;2.20;;;19.00;99.90;;;;;;5071199;28;20448;-70
2022/08/03 03:04:51;;;;;;;8.18;1.90;;;18.90;99.90;;;;;;5053158;28;20116;-70
2022/08/03 03:07:17;;;;;;;7.95;2.28;;;19.70;99.90;;;;;;5053277;28;20036;-69
2022/08/03 03:09:44;;;;;;;6.28;1.80;;;19.20;99.90;;;;;;5070810;28;20039;-70
2022/08/03 03:12:12;;;;;;;5.65;2.10;;;19.90;99.90;;;;;;5071345;28;20066;-70
2022/08/03 03:14:38;;;;;;;7.75;2.17;;;18.90;99.90;;;;;;5070824;28;20041;-70
2022/08/03 03:17:06;;;;;;;5.50;1.80;;;19.00;99.90;;;;;;5071435;28;20040;-70
2022/08/03 03:19:32;;;;;;;5.95;1.98;;;19.20;99.90;;;;;;5053241;28;20103;-70
2022/08/03 03:22:00;;;;;;;9.73;2.67;;;19.00;99.90;;;;;;5053124;28;20040;-70
2022/08/03 03:24:27;;;;;;;7.90;1.80;;;18.80;99.90;;;;;;5052777;28;20033;-70
2022/08/03 03:26:53;;;;;;;9.07;2.17;;;19.00;99.90;;;;;;5071184;28;20044;-70
2022/08/03 03:29:20;;;;;;;8.85;2.00;;;20.10;99.90;;;;;;5054670;28;20051;-70
2022/08/03 03:31:45;;;;;;;8.85;2.33;;;19.00;99.90;;;;;;5075075;28;20041;-70
2022/08/03 03:34:11;;;;;;;9.30;2.30;;;19.10;99.90;;;;;;5056414;28;20051;-70
2022/08/03 03:36:38;;;;;;;8.27;2.05;;;19.20;99.90;;;;;;5056920;28;20044;-70
2022/08/03 03:39:04;;;;;;;7.97;2.13;;;18.80;99.90;;;;;;5074388;28;20040;-70
2022/08/03 03:41:30;;;;;;;8.73;2.65;;;18.90;99.90;;;;;;5056925;28;20131;-69
2022/08/03 03:43:55;;;;;;;9.35;1.83;;;19.40;99.90;;;;;;5056689;28;20036;-69
2022/08/03 03:46:21;;;;;;;8.98;2.13;;;19.10;99.90;;;;;;5056683;28;20123;-70
2022/08/03 03:48:47;;;;;;;6.38;2.38;;;18.80;99.90;;;;;;5074439;28;20040;-70
2022/08/03 03:51:13;;;;;;;6.97;2.30;;;19.10;99.90;;;;;;5056365;28;20090;-70
2022/08/03 03:53:39;;;;;;;9.27;2.33;;;19.60;99.90;;;;;;5056380;28;20076;-69
2022/08/03 03:56:05;;;;;;;11.38;1.92;;;18.80;99.90;;;;;;5074118;28;20529;-70
2022/08/03 03:58:32;;;;;;;7.20;2.10;;;19.30;99.90;;;;;;5074295;28;20051;-70
2022/08/03 04:00:57;;;;;;;8.48;2.47;;;19.40;99.90;;;;;;5056030;28;20045;-70
2022/08/03 04:03:23;;;;;;;7.13;2.63;;;18.90;99.90;;;;;;5074100;28;20033;-71
2022/08/03 04:11:26;;;;;;;9.52;2.55;;;20.10;99.90;;;;;;5056012;28;20036;-70
2022/08/03 04:14:14;;;;;;;6.32;2.75;;;18.80;99.90;;;;;;5055731;28;20051;-69
2022/08/03 04:16:45;;;;;;;5.88;1.90;;;18.70;99.90;;;;;;5045391;28;20078;-70
2022/08/03 04:19:25;;;;;;;10.52;3.15;;;19.30;99.90;;;;;;5073913;28;20036;-70
2022/08/03 04:21:56;;;;;;;11.35;2.80;;;18.90;99.90;;;;;;5073899;28;20044;-70
2022/08/03 04:24:25;;;;;;;9.13;2.58;;;18.80;99.90;;;;;;5073575;28;20063;-70
2022/08/03 04:26:51;;;;;;;5.18;2.17;;;19.20;99.90;;;;;;5055747;28;20032;-71
2022/08/03 04:29:16;;;;;;;9.48;2.63;;;18.90;99.90;;;;;;5073649;28;20101;-70
2022/08/03 04:31:44;;;;;;;6.35;2.17;;;18.70;99.90;;;;;;5073868;28;20043;-70
2022/08/03 04:34:09;;;;;;;8.20;2.88;;;18.60;99.90;;;;;;5055356;28;20066;-70
2022/08/03 04:36:41;;;;;;;10.32;2.80;;;19.40;99.90;;;;;;5045819;28;20037;-70
2022/08/03 04:39:12;;;;;;;7.25;2.50;;;19.10;99.90;;;;;;5035752;28;20037;-70
2022/08/03 04:41:39;;;;;;;9.10;3.08;;;18.70;99.90;;;;;;5034736;28;20044;-70
2022/08/03 04:44:05;;;;;;;10.98;2.65;;;18.70;99.90;;;;;;5053223;28;20048;-69
2022/08/03 04:46:35;;;;;;;8.60;2.85;;;19.50;99.90;;;;;;5035694;28;20070;-70
2022/08/03 04:49:02;;;;;;;10.10;2.47;;;19.70;99.90;;;;;;5061963;28;20126;-70
2022/08/03 04:51:28;;;;;;;7.63;2.60;;;18.70;99.90;;;;;;5037141;28;20304;-70
2022/08/03 04:53:53;;;;;;;10.95;3.22;;;19.20;99.90;;;;;;5034948;28;20402;-70
2022/08/03 04:56:19;;;;;;;5.57;2.70;;;18.90;99.90;;;;;;5035758;28;20041;-70
2022/08/03 04:58:45;;;;;;;10.18;3.00;;;19.10;99.90;;;;;;5053187;28;20033;-70
2022/08/03 05:01:10;;;;;;;11.27;3.65;;;18.90;99.90;;;;;;5035487;28;20476;-70
2022/08/03 05:03:36;;;;;;;8.63;3.05;;;18.90;99.90;;;;;;5053076;28;20135;-70
2022/08/03 05:06:02;;;;;;;14.13;4.57;;;19.00;99.90;;;;;;5052788;28;20112;-70
2022/08/03 05:08:28;;;;;;;6.20;2.63;;;18.90;99.90;;;;;;5083476;22;20028;-72
2022/08/03 05:10:55;;;;;;;9.18;2.53;;;18.70;99.90;;;;;;5000724;28;20040;-72
2022/08/03 05:13:21;;;;;;;10.52;2.80;;;19.90;99.90;;;;;;5043083;28;20487;-73
2022/08/03 05:15:54;;;;;;;6.05;2.80;;;18.80;99.90;;;;;;5023349;28;20037;-72
2022/08/03 05:18:19;;;;;;;4.03;2.50;;;19.10;99.90;;;;;;5029350;28;20052;-72
2022/08/03 05:20:45;;;;;;;6.15;2.75;;;19.00;99.90;;;;;;5019083;28;20045;-72
2022/08/03 05:23:11;;;;;;;9.52;2.63;;;19.00;99.90;;;;;;5008058;28;20414;-72
2022/08/03 05:25:36;;;;;;;10.60;3.00;;;19.00;99.90;;;;;;5002528;28;20053;-72
2022/08/03 05:28:02;;;;;;;7.97;2.60;;;19.90;99.90;;;;;;5028435;28;20414;-72
2022/08/03 05:30:28;;;;;;;6.82;3.00;;;19.10;99.90;;;;;;5006225;28;20042;-72
2022/08/03 05:32:53;;;;;;;7.25;2.33;;;19.30;99.90;;;;;;4981376;28;20160;-72
2022/08/03 05:35:19;;;;;;;5.28;2.67;;;20.20;99.90;;;;;;5012617;28;20038;-73
2022/08/03 05:37:44;;;;;;;10.60;3.03;;;19.40;99.90;;;;;;5010120;28;20073;-72
2022/08/03 05:40:11;;;;;;;9.32;2.75;;;19.20;99.90;;;;;;5011484;28;20044;-72
2022/08/03 05:42:36;;;;;;;8.65;2.88;;;19.30;99.90;;;;;;5009691;28;20038;-72
2022/08/03 05:45:15;;;;;;;13.25;3.08;;;20.50;99.90;;;;;;5005100;28;20127;-71
2022/08/03 05:47:43;;;;;;;10.50;3.03;;;19.30;99.90;;;;;;5017434;28;20045;-71
2022/08/03 05:50:11;;;;;;;11.40;3.50;;;19.50;99.90;;;;;;5019759;28;20418;-72
2022/08/03 05:52:38;;;;;;;8.40;2.65;;;19.70;99.90;;;;;;5014766;28;20092;-72
2022/08/03 05:55:06;;;;;;;8.50;2.40;;;20.00;99.90;;;;;;5011194;28;20399;-72
2022/08/03 05:57:32;;;;;;;12.15;3.40;;;19.80;99.90;;;;;;5029098;28;20128;-72
2022/08/03 05:59:57;;;;;;;11.10;2.90;;;19.80;99.90;;;;;;5029004;28;20121;-72
2022/08/03 06:02:23;;;;;;;15.05;3.10;;;20.10;99.90;;;;;;5011162;28;20125;-72
2022/08/03 06:04:48;;;;;;;15.30;3.33;;;19.90;99.90;;;;;;5006284;28;20384;-72
2022/08/03 06:07:14;;;;;;;13.73;3.38;;;19.80;99.90;;;;;;5015480;28;20072;-72
2022/08/03 06:09:40;;;;;;;13.23;3.10;;;19.90;99.90;;;;;;4985875;28;20575;-72
2022/08/03 06:12:06;;;;;;;14.82;3.13;;;19.60;99.90;;;;;;5016247;28;20064;-72
2022/08/03 06:14:31;;;;;;;6.10;2.58;;;19.90;99.90;;;;;;4997168;28;20411;-72
2022/08/03 06:16:57;;;;;;;12.73;3.72;;;20.00;99.90;;;;;;4996869;28;20041;-72
2022/08/03 06:19:23;;;;;;;13.43;2.90;;;20.70;99.90;;;;;;5014446;28;20038;-72
2022/08/03 06:21:48;;;;;;;11.25;3.05;;;20.30;99.90;;;;;;5014422;28;20035;-72
2022/08/03 06:24:15;;;;;;;6.95;2.83;;;20.10;99.90;;;;;;5014030;28;20073;-72
2022/08/03 06:26:41;;;;;;;14.75;3.30;;;20.40;99.90;;;;;;5014162;28;20042;-72
2022/08/03 06:29:06;;;;;;;14.88;3.30;;;20.50;99.90;;;;;;5031879;28;20034;-73
2022/08/03 06:31:32;;;;;;;9.85;3.00;;;20.50;99.90;;;;;;5031902;28;20384;-72
2022/08/03 06:33:57;;;;;;;11.43;3.40;;;20.80;99.90;;;;;;5031438;28;20116;-72
2022/08/03 06:36:24;;;;;;;19.20;3.55;;;20.60;99.90;;;;;;5014079;28;20056;-72
2022/08/03 06:38:50;;;;;;;12.02;3.80;;;20.90;99.90;;;;;;5031857;28;20407;-72
2022/08/03 06:41:15;;;;;;;13.27;4.00;;;21.30;99.90;;;;;;5024679;28;20041;-72
2022/08/03 06:43:41;;;;;;;10.00;4.43;;;20.90;99.90;;;;;;5034117;28;20128;-72
2022/08/03 06:46:07;;;;;;;17.40;6.68;;;21.20;99.90;;;;;;5051407;28;20040;-71
2022/08/03 06:48:32;;;;;;;18.27;5.35;;;21.10;99.90;;;;;;5033548;28;20041;-72
2022/08/03 06:50:58;;;;;;;14.63;6.10;;;21.00;99.90;;;;;;5051974;28;20064;-71
2022/08/03 06:53:24;;;;;;;11.45;5.70;;;21.30;99.90;;;;;;5033997;28;20048;-71
2022/08/03 06:55:50;;;;;;;15.13;5.20;;;22.20;99.90;;;;;;5033799;28;20044;-71
2022/08/03 06:58:15;;;;;;;16.00;4.57;;;22.30;99.90;;;;;;5051665;28;20062;-71
2022/08/03 07:00:41;;;;;;;12.05;4.88;;;21.50;99.90;;;;;;5033131;28;20037;-72
2022/08/03 07:03:06;;;;;;;16.27;7.13;;;21.40;99.90;;;;;;5017275;28;20041;-72
2022/08/03 07:05:33;;;;;;;15.30;5.28;;;21.50;99.90;;;;;;5020767;28;20041;-71
2022/08/03 07:08:00;;;;;;;14.32;4.28;;;21.60;99.90;;;;;;5037539;28;20055;-72
2022/08/03 07:10:26;;;;;;;14.93;5.22;;;21.80;99.90;;;;;;5055268;28;20422;-71
2022/08/03 07:12:52;;;;;;;13.23;4.93;;;21.80;99.90;;;;;;5037717;28;20048;-71
2022/08/03 07:15:18;;;;;;;12.43;5.20;;;22.10;99.90;;;;;;5037588;28;20033;-72
2022/08/03 07:17:44;;;;;;;14.95;5.00;;;22.10;99.90;;;;;;5055573;28;20041;-72
2022/08/03 07:20:12;;;;;;;29.30;5.13;;;22.70;99.90;;;;;;5037522;28;20079;-73
2022/08/03 07:22:37;;;;;;;13.38;4.50;;;22.60;99.90;;;;;;5037286;28;20041;-72
2022/08/03 07:25:03;;;;;;;15.35;5.97;;;22.80;99.90;;;;;;5054837;28;20128;-72
2022/08/03 07:27:29;;;;;;;15.07;6.18;;;22.10;99.90;;;;;;5055339;28;20036;-73
2022/08/03 07:29:56;;;;;;;19.77;6.35;;;22.70;99.90;;;;;;5037148;28;20052;-72
2022/08/03 07:32:23;;;;;;;25.75;6.57;;;22.90;99.90;;;;;;5020593;28;20509;-72
2022/08/03 07:34:49;;;;;;;18.13;6.03;;;23.00;99.90;;;;;;5054817;28;20044;-73
2022/08/03 07:37:15;;;;;;;17.63;6.53;;;;;;;;;;5055018;28;20398;-72
2022/08/03 07:39:40;;;;;;;15.07;5.90;;;23.30;99.90;;;;;;5037119;28;20190;-72
2022/08/03 07:42:06;;;;;;;14.45;5.75;;;23.20;99.90;;;;;;5020481;28;20049;-72
2022/08/03 07:44:32;;;;;;;16.13;5.72;;;23.70;99.90;;;;;;5036822;28;20053;-73
2022/08/03 07:46:57;;;;;;;13.70;5.75;;;23.70;99.90;;;;;;5036879;28;20498;-72
2022/08/03 07:49:23;;;;;;;13.88;5.90;;;23.90;99.90;;;;;;5036917;28;20036;-73
2022/08/03 07:54:33;;;;;;;9.20;6.43;;;23.50;99.90;;;;;;5036560;28;20037;-72
2022/08/03 07:56:58;;;;;;;17.25;7.65;;;23.30;99.90;;;;;;5020445;28;20041;-73
2022/08/03 07:59:24;;;;;;;14.40;7.47;;;22.80;99.90;;;;;;5036840;28;20033;-73
2022/08/03 08:01:51;;;;;;;14.07;6.80;;;23.10;99.90;;;;;;5036108;28;20041;-72
2022/08/03 08:04:17;;;;;;;14.82;6.80;;;22.50;99.90;;;;;;5036272;28;20041;-72
2022/08/03 08:06:43;;;;;;;16.05;6.65;;;22.50;99.90;;;;;;5036583;28;20124;-73
2022/08/03 08:09:10;;;;;;;15.52;6.93;;;22.30;99.90;;;;;;5054240;28;20068;-73
2022/08/03 08:11:36;;;;;;;15.55;7.43;;;22.30;99.90;;;;;;5054504;28;20052;-73
2022/08/03 08:14:03;;;;;;;17.65;7.90;;;22.60;99.90;;;;;;5054016;28;20041;-73
2022/08/03 08:16:29;;;;;;;16.63;8.25;;;22.40;99.90;;;;;;5036475;28;20505;-73
2022/08/03 08:18:54;;;;;;;14.30;7.93;;;22.40;99.90;;;;;;5019752;28;20075;-72
2022/08/03 08:21:20;;;;;;;12.32;7.88;;;22.60;99.90;;;;;;5020054;28;20037;-72
2022/08/03 08:23:46;;;;;;;12.15;7.55;;;22.80;99.90;;;;;;5036164;28;20049;-73
2022/08/03 08:26:11;;;;;;;18.40;7.60;;;23.10;99.90;;;;;;5019682;28;20041;-73
2022/08/03 08:28:37;;;;;;;18.30;7.03;;;23.30;99.90;;;;;;5019546;28;20045;-72
2022/08/03 08:31:03;;;;;;;13.38;7.38;;;23.60;99.90;;;;;;5036010;28;20045;-72
2022/08/03 08:33:29;;;;;;;16.02;7.65;;;24.00;99.90;;;;;;5054049;28;20120;-72
2022/08/03 08:35:54;;;;;;;13.45;7.00;;;24.00;99.90;;;;;;5035690;28;20495;-72
2022/08/03 08:38:21;;;;;;;16.40;6.90;;;23.80;99.90;;;;;;5036168;28;20044;-72
2022/08/03 08:40:48;;;;;;;16.73;8.48;;;24.10;99.90;;;;;;5036099;28;20048;-72
2022/08/03 08:43:13;;;;;;;20.77;9.38;;;24.40;99.90;;;;;;5036094;28;20510;-73
2022/08/03 08:45:40;;;;;;;16.08;6.78;;;24.20;99.90;;;;;;5019453;28;20047;-73
2022/08/03 08:48:08;;;;;;;19.17;7.63;;;24.10;99.90;;;;;;5035795;28;20045;-72
2022/08/03 08:50:37;;;;;;;17.23;7.55;;;23.80;99.90;;;;;;5035817;28;20053;-72
2022/08/03 08:53:08;;;;;;;16.23;6.80;;;23.70;99.90;;;;;;5035543;28;20036;-73
2022/08/03 08:55:34;;;;;;;14.93;7.53;;;23.80;99.90;;;;;;5035595;28;20127;-72
2022/08/03 08:58:05;;;;;;;18.42;7.05;;;24.40;99.90;;;;;;5035645;28;20533;-73
2022/08/03 09:00:31;;;;;;;15.57;7.60;;;24.00;99.90;;;;;;5052990;28;20584;-72
2022/08/03 09:02:57;;;;;;;14.52;8.40;;;24.20;99.90;;;;;;5035734;28;20425;-73
2022/08/03 09:05:22;;;;;;;15.98;7.38;;;24.40;99.90;;;;;;5018613;28;20040;-73
2022/08/03 09:07:48;;;;;;;17.05;7.00;;;24.70;99.90;;;;;;5053249;28;20106;-73
2022/08/03 09:10:18;;;;;;;13.25;7.82;;;24.90;99.90;;;;;;5035000;28;20525;-73
2022/08/03 09:12:51;;;;;;;22.63;8.73;;;24.60;99.90;;;;;;5035333;28;20033;-73
2022/08/03 09:15:30;;;;;;;15.05;8.27;;;24.50;99.90;;;;;;5035176;28;20044;-72
2022/08/03 09:17:57;;;;;;;15.75;7.45;;;24.30;99.90;;;;;;5035543;28;20551;-72
2022/08/03 09:20:26;;;;;;;23.58;7.93;;;24.40;99.90;;;;;;5035230;28;20041;-73
2022/08/03 09:22:54;;;;;;;23.08;8.38;;;24.60;99.90;;;;;;5035028;28;20045;-72
2022/08/03 09:25:27;;;;;;;16.52;8.90;;;25.00;99.90;;;;;;5034790;28;20423;-72
2022/08/03 09:27:52;;;;;;;13.18;7.25;;;25.30;99.90;;;;;;5052353;28;20494;-73
2022/08/03 09:30:19;;;;;;;18.65;9.25;;;25.20;99.90;;;;;;5053010;28;20114;-73
2022/08/03 09:32:46;;;;;;;21.42;9.43;;;25.40;99.90;;;;;;5018428;28;20055;-73
2022/08/03 09:35:14;;;;;;;16.85;8.68;;;25.30;99.90;;;;;;5034455;28;20041;-73
2022/08/03 09:37:40;;;;;;;17.33;7.70;;;25.00;99.90;;;;;;5052922;28;20051;-72
2022/08/03 09:40:06;;;;;;;15.65;7.63;;;25.20;99.90;;;;;;5034768;28;20037;-73
2022/08/03 09:42:36;;;;;;;17.88;7.53;;;25.20;99.90;;;;;;5018209;28;20499;-73
2022/08/03 09:45:03;;;;;;;13.60;7.32;;;25.50;99.90;;;;;;5053529;28;20045;-73
2022/08/03 09:47:30;;;;;;;19.73;8.48;;;25.30;99.90;;;;;;5035553;28;20091;-73
2022/08/03 09:50:01;;;;;;;24.85;8.93;;;25.50;99.90;;;;;;5034923;28;20129;-73
2022/08/03 09:52:48;;;;;;;18.77;8.20;;;26.60;99.90;;;;;;5035088;28;20376;-73
2022/08/03 09:55:14;;;;;;;19.63;8.48;;;25.70;99.90;;;;;;5034547;28;20039;-73
2022/08/03 09:57:44;;;;;;;18.40;7.75;;;25.90;99.90;;;;;;5018120;28;20120;-73
2022/08/03 10:00:12;;;;;;;19.77;8.05;;;25.30;99.90;;;;;;5034765;28;20048;-73
2022/08/03 10:02:42;;;;;;;20.25;8.82;;;25.30;99.90;;;;;;5018601;28;20041;-72
2022/08/03 10:05:09;;;;;;;16.55;8.57;;;25.30;99.90;;;;;;5034403;28;20111;-72
2022/08/03 10:07:46;;;;;;;19.15;9.00;;;26.10;99.90;;;;;;5052371;28;20052;-73
2022/08/03 10:10:12;;;;;;;25.27;8.98;;;25.80;99.90;;;;;;5034062;28;20044;-73
2022/08/03 10:12:40;;;;;;;17.55;8.00;;;25.10;99.90;;;;;;5034486;28;20098;-72
2022/08/03 10:15:06;;;;;;;22.90;8.93;;;25.00;99.90;;;;;;5017566;28;20425;-72
2022/08/03 10:17:33;;;;;;;19.90;8.52;;;25.00;99.90;;;;;;5052151;28;20037;-72
2022/08/03 10:19:59;;;;;;;17.92;8.40;;;24.70;99.90;;;;;;5052009;28;20185;-73
2022/08/03 10:22:31;;;;;;;17.42;7.15;;;26.50;99.90;;;;;;5034043;28;20080;-72
2022/08/03 10:25:07;;;;;;;16.65;7.90;;;25.50;99.90;;;;;;5033902;28;20044;-72
2022/08/03 10:27:39;;;;;;;18.85;8.15;;;25.30;99.90;;;;;;5034030;28;20048;-73
2022/08/03 10:30:09;;;;;;;15.93;8.63;;;24.80;99.90;;;;;;5034066;28;20041;-72
2022/08/03 10:32:35;;;;;;;22.45;7.82;;;24.70;99.90;;;;;;5034303;28;20402;-72
2022/08/03 10:35:13;;;;;;;22.80;8.65;;;24.90;99.90;;;;;;5051521;28;20033;-73
2022/08/03 10:37:43;;;;;;;18.48;9.75;;;25.20;99.90;;;;;;5033549;28;20033;-73
2022/08/03 10:40:14;;;;;;;17.92;9.20;;;24.60;99.90;;;;;;5033262;28;20052;-72
2022/08/03 10:42:42;;;;;;;18.85;8.80;;;24.60;99.90;;;;;;5051822;28;20373;-72
2022/08/03 10:45:19;;;;;;;15.18;7.93;;;24.50;99.90;;;;;;5033867;28;20376;-72
2022/08/03 10:47:47;;;;;;;18.40;8.13;;;24.70;99.90;;;;;;5051656;28;20118;-72
2022/08/03 10:50:13;;;;;;;23.90;9.40;;;24.90;99.90;;;;;;5033811;28;20410;-73
2022/08/03 10:52:57;;;;;;;18.42;7.53;;;25.10;99.90;;;;;;5033812;28;20033;-72
2022/08/03 10:58:39;;;;;;;16.40;6.80;;;25.50;99.90;;;;;;5033634;28;20091;-73
2022/08/03 11:01:10;;;;;;;24.00;8.18;;;25.70;99.90;;;;;;5033653;28;20500;-72
2022/08/03 11:03:51;;;;;;;22.25;7.22;;;25.70;99.90;;;;;;5033515;28;20041;-72
2022/08/03 11:06:23;;;;;;;14.45;6.80;;;26.00;99.90;;;;;;5051494;28;20166;-73
2022/08/03 11:11:17;;;;;;;19.02;5.93;;;25.90;99.90;;;;;;5087234;22;20139;-70
2022/08/03 11:13:57;;;;;;;13.23;5.03;;;26.40;99.90;;;;;;5053217;28;20060;-70
2022/08/03 11:16:26;;;;;;;24.80;6.05;;;26.00;99.90;;;;;;5036420;28;20573;-70
2022/08/03 11:18:59;;;;;;;21.80;6.72;;;26.20;99.90;;;;;;5070868;28;20070;-70
2022/08/03 11:21:52;;;;;;;23.63;7.72;;;26.20;99.90;;;;;;5070961;28;20037;-70
2022/08/03 11:24:36;;;;;;;20.60;6.78;;;25.90;99.90;;;;;;5075753;28;20469;-69
2022/08/03 11:27:16;;;;;;;23.00;5.43;;;26.50;99.90;;;;;;5061200;28;20147;-69
2022/08/03 11:29:55;;;;;;;17.88;6.65;;;26.90;99.90;;;;;;5060599;28;20041;-69
2022/08/03 11:32:36;;;;;;;16.45;5.28;;;26.20;99.90;;;;;;5036409;28;20536;-69
2022/08/03 11:35:11;;;;;;;18.42;5.10;;;26.30;99.90;;;;;;5036316;28;20502;-69
2022/08/03 11:38:04;;;;;;;19.25;6.80;;;26.60;99.90;;;;;;5052429;28;20055;-69
2022/08/03 11:40:44;;;;;;;19.05;5.72;;;26.30;99.90;;;;;;5050231;28;20055;-69
2022/08/03 11:43:33;;;;;;;16.73;5.80;;;26.30;99.90;;;;;;5052915;28;20032;-69
2022/08/03 11:46:07;;;;;;;19.90;5.60;;;26.40;99.90;;;;;;5036016;28;20046;-69
2022/08/03 11:48:33;;;;;;;17.27;5.03;;;26.80;99.90;;;;;;5036111;28;20076;-69
2022/08/03 11:50:59;;;;;;;19.10;5.28;;;26.80;99.90;;;;;;5055674;28;20082;-69
2022/08/03 11:53:26;;;;;;;18.58;4.68;;;27.20;99.90;;;;;;5056849;28;20111;-67
2022/08/03 11:55:52;;;;;;;12.98;4.70;;;26.80;99.90;;;;;;5093168;28;20051;-69
2022/08/03 11:58:22;;;;;;;18.27;4.60;;;26.70;99.90;;;;;;5059950;28;20393;-70
2022/08/03 12:00:49;;;;;;;13.43;4.18;;;26.90;99.90;;;;;;5076417;28;20093;-69
2022/08/03 12:03:19;;;;;;;12.90;3.75;;;26.70;99.90;;;;;;5094564;28;20195;-69
2022/08/03 12:05:52;;;;;;;16.73;4.43;;;26.90;99.90;;;;;;5074463;28;20039;-69
2022/08/03 12:08:33;;;;;;;16.13;4.93;;;27.10;99.90;;;;;;5071283;28;20500;-69
2022/08/03 12:11:01;;;;;;;18.13;5.35;;;27.20;99.90;;;;;;5072968;28;20053;-69
2022/08/03 12:13:39;;;;;;;16.25;4.78;;;26.80;99.90;;;;;;5041593;28;20029;-69
2022/08/03 12:16:05;;;;;;;21.23;4.90;;;27.10;99.90;;;;;;5055733;28;20459;-69
2022/08/03 12:18:31;;;;;;;20.40;5.13;;;27.20;99.90;;;;;;5046125;28;20123;-68
2022/08/03 12:21:17;;;;;;;18.33;5.25;;;27.30;99.90;;;;;;5062373;28;20493;-68
2022/08/03 12:23:43;;;;;;;20.55;4.35;;;27.90;99.90;;;;;;5066288;28;20081;-68
2022/08/03 12:26:09;;;;;;;16.17;4.82;;;27.30;99.90;;;;;;5061572;28;20094;-68
2022/08/03 12:28:35;;;;;;;20.27;6.38;;;27.30;99.90;;;;;;5074117;28;20037;-69
2022/08/03 12:31:06;;;;;;;15.65;5.72;;;26.80;99.90;;;;;;5055432;28;20127;-69
2022/08/03 12:34:00;;;;;;;14.48;5.07;;;27.10;99.90;;;;;;5055557;28;20082;-69
2022/08/03 12:36:27;;;;;;;18.55;5.82;;;27.10;99.90;;;;;;5054798;28;20040;-69
2022/08/03 12:39:01;;;;;;;19.55;5.25;;;27.00;99.90;;;;;;5071524;28;20093;-69
2022/08/03 12:41:32;;;;;;;14.98;5.35;;;27.00;99.90;;;;;;5055239;28;20528;-68
2022/08/03 12:43:58;;;;;;;20.33;7.00;;;27.30;99.90;;;;;;5048120;28;20041;-69
2022/08/03 12:46:36;;;;;;;17.35;5.72;;;28.70;99.90;;;;;;5016907;28;20534;-67
2022/08/03 12:49:10;;;;;;;19.00;6.28;;;27.50;99.90;;;;;;5034584;28;20045;-69
2022/08/03 12:51:57;;;;;;;19.25;6.20;;;27.60;99.90;;;;;;5034312;28;20041;-68
2022/08/03 12:54:30;;;;;;;17.85;6.70;;;27.50;99.90;;;;;;5018844;28;20075;-69
2022/08/03 12:57:03;;;;;;;23.20;6.40;;;27.90;99.90;;;;;;5035546;28;20045;-69
2022/08/03 12:59:42;;;;;;;21.98;8.20;;;27.00;99.90;;;;;;5035186;28;20494;-69
2022/08/03 13:02:20;;;;;;;20.85;7.32;;;27.40;99.90;;;;;;5034321;28;20083;-69
2022/08/03 13:04:47;;;;;;;16.70;6.47;;;27.10;99.90;;;;;;5035374;28;20036;-69